SABE/AEP METAR and TAF weather

Enter ICAO airport designator
Station Type Date Time Source
SABE METAR 2020/09/22 08:00 UTC NOAA

SABE 220800Z 04009KT CAVOK 11/04 Q1023 NOSIG


Station Type Date Time Source
SABE Decoded METAR 2020/09/22 08:00 UTC NOAA

Aeroparque Bs. As. Aerodrome, Argentina (SABE) 34-34S 058-25W 6M
Sep 22, 2020 - 04:00 AM EDT / 2020.09.22 0800 UTC
Wind: from the NE (040 degrees) at 10 MPH (9 KT):0
Visibility: greater than 7 mile(s):0
Temperature: 51 F (11 C)
Dew Point: 39 F (4 C)
Relative Humidity: 61%
Pressure (altimeter): 30.21 in. Hg (1023 hPa)
ob: SABE 220800Z 04009KT CAVOK 11/04 Q1023 NOSIG
cycle: 8

Station Type Date Time Source
SABE TAF 2020/09/22 06:37 UTC NOAA

TAF SABE 220500Z 2206/2306 05010KT CAVOK TX19/2218Z TN09/2210Z

Example: see airport list